Terminal Aerodrome Forecast
Issued by NWS

Home | Current Version | Previous Version | Text Only | Print | Product List | Glossary On
Versions: 1 2 3 4 5 6 7 8 9 10 11 12 13 14 15 16 17 18 19
000
FTAK31 PAJN 020521
TAFAKT
TAF
PAKT 020521Z 0206/0306 32006KT P6SM FEW060 BKN150
     FM021200 31003KT P6SM SCT050 BKN150
      TEMPO 0212/0216 BKN015
     FM021900 34010KT P6SM FEW020 BKN150=

USA.gov is the U.S. government's official web portal to all federal, state and local government web resources and services.